createdAt,value
2018-07-28T00:01:32.178Z,3.73
2018-07-28T00:03:36.622Z,3.50
2018-07-28T00:05:41.134Z,3.80
2018-07-28T00:07:45.550Z,4.00
2018-07-28T00:09:50.501Z,3.90
2018-07-28T00:11:55.047Z,3.60
2018-07-28T00:13:59.644Z,3.62
2018-07-28T00:16:04.054Z,3.72
2018-07-28T00:18:08.544Z,3.60
2018-07-28T00:20:13.814Z,3.57
2018-07-28T00:22:18.184Z,3.45
2018-07-28T00:24:22.664Z,3.65
2018-07-28T00:26:27.032Z,3.50
2018-07-28T00:28:31.433Z,3.50
2018-07-28T00:30:35.905Z,3.77
2018-07-28T00:32:40.306Z,3.65
2018-07-28T00:34:44.858Z,3.90
2018-07-28T00:36:49.263Z,3.83
2018-07-28T00:38:53.714Z,4.07
2018-07-28T00:40:58.169Z,3.87
2018-07-28T00:43:02.566Z,3.55
2018-07-28T00:45:07.795Z,3.80
2018-07-28T00:47:12.263Z,3.53
2018-07-28T00:49:16.728Z,3.62
2018-07-28T00:51:21.220Z,3.62
2018-07-28T00:53:27.194Z,3.60
2018-07-28T00:55:31.575Z,3.83
2018-07-28T00:57:36.111Z,3.95
2018-07-28T00:59:40.523Z,3.30
2018-07-28T01:01:48.167Z,3.80
2018-07-28T01:03:54.679Z,4.00
2018-07-28T01:06:02.783Z,3.60
2018-07-28T01:08:10.304Z,3.95
2018-07-28T01:10:17.554Z,3.87
2018-07-28T01:12:24.732Z,3.98
2018-07-28T01:14:29.362Z,3.97
2018-07-28T01:16:34.846Z,3.67
2018-07-28T01:18:41.522Z,3.37
2018-07-28T01:20:48.147Z,3.83
2018-07-28T01:22:54.631Z,3.63
2018-07-28T01:25:01.761Z,3.37
2018-07-28T01:27:08.101Z,4.00
2018-07-28T01:29:19.393Z,3.83
2018-07-28T01:31:27.695Z,3.65
2018-07-28T01:33:34.855Z,3.33
2018-07-28T01:35:41.557Z,4.07
2018-07-28T01:37:49.430Z,3.95
2018-07-28T01:39:56.908Z,4.27
2018-07-28T01:42:07.881Z,3.73
2018-07-28T01:44:14.364Z,3.77
2018-07-28T01:46:21.458Z,3.30
2018-07-28T01:48:28.684Z,3.80
2018-07-28T01:50:34.321Z,3.67
2018-07-28T01:52:41.855Z,3.80
2018-07-28T01:54:47.458Z,4.00
2018-07-28T01:56:55.183Z,3.75
2018-07-28T01:59:02.616Z,3.73
2018-07-28T02:01:07.214Z,3.85
2018-07-28T02:03:11.992Z,3.85
2018-07-28T02:05:16.559Z,3.87
2018-07-28T02:07:24.102Z,3.90
2018-07-28T02:09:31.587Z,3.90
2018-07-28T02:11:40.037Z,3.58
2018-07-28T02:13:46.054Z,4.20
2018-07-28T02:15:53.260Z,3.57
2018-07-28T02:18:02.209Z,3.87
2018-07-28T02:20:10.142Z,3.57
2018-07-28T02:22:18.699Z,3.80
2018-07-28T02:24:23.241Z,3.75
2018-07-28T02:26:27.704Z,4.12
2018-07-28T02:28:32.461Z,3.55
2018-07-28T02:30:36.967Z,3.98
2018-07-28T02:32:41.422Z,4.20
2018-07-28T02:34:45.940Z,3.80
2018-07-28T02:36:50.481Z,3.90
2018-07-28T02:38:54.983Z,3.63
2018-07-28T02:40:59.562Z,3.60
2018-07-28T02:43:04.202Z,3.95
2018-07-28T02:45:08.735Z,3.83
2018-07-28T02:47:13.169Z,3.80
2018-07-28T02:49:17.642Z,3.73
2018-07-28T02:51:22.179Z,3.87
2018-07-28T02:53:26.619Z,4.40
2018-07-28T02:55:31.123Z,3.63
2018-07-28T02:57:35.466Z,4.20
2018-07-28T02:59:39.948Z,3.87
2018-07-28T03:01:44.452Z,4.33
2018-07-28T03:03:48.929Z,4.08
2018-07-28T03:05:53.484Z,3.87
2018-07-28T03:07:57.947Z,3.80
2018-07-28T03:10:02.424Z,4.05
2018-07-28T03:12:07.295Z,3.85
2018-07-28T03:14:12.950Z,4.00
2018-07-28T03:16:17.552Z,4.40
2018-07-28T03:18:21.979Z,4.13
2018-07-28T03:20:26.448Z,4.03
2018-07-28T03:22:30.900Z,4.40
2018-07-28T03:24:35.394Z,4.20
2018-07-28T03:26:39.975Z,4.03
2018-07-28T03:28:44.432Z,4.40
2018-07-28T03:30:49.138Z,4.30
2018-07-28T03:32:54.193Z,4.15
2018-07-28T03:34:58.637Z,4.30
2018-07-28T03:37:03.167Z,4.42
2018-07-28T03:39:10.595Z,4.15
2018-07-28T03:41:15.103Z,4.30
2018-07-28T03:43:19.585Z,3.73
2018-07-28T03:45:24.058Z,4.10
2018-07-28T03:47:28.626Z,4.28
2018-07-28T03:49:33.966Z,4.47
2018-07-28T03:51:38.424Z,4.20
2018-07-28T03:53:42.868Z,4.35
2018-07-28T03:55:47.345Z,4.10
2018-07-28T03:57:51.802Z,4.50
2018-07-28T03:59:56.290Z,4.20
2018-07-28T04:02:03.507Z,4.67
2018-07-28T04:04:10.422Z,4.20
2018-07-28T04:06:17.698Z,4.43
2018-07-28T04:08:24.912Z,4.15
2018-07-28T04:10:32.386Z,4.05
2018-07-28T04:12:40.383Z,4.57
2018-07-28T04:14:48.207Z,4.20
2018-07-28T04:16:52.662Z,4.37
2018-07-28T04:18:57.122Z,4.70
2018-07-28T04:21:01.712Z,4.03
2018-07-28T04:23:07.091Z,4.00
2018-07-28T04:25:11.767Z,4.17
2018-07-28T04:27:16.235Z,4.30
2018-07-28T04:29:20.719Z,4.17
2018-07-28T04:31:25.315Z,4.57
2018-07-28T04:33:29.752Z,4.20
2018-07-28T04:35:34.214Z,4.23
2018-07-28T04:37:39.564Z,4.53
2018-07-28T04:39:44.052Z,4.40
2018-07-28T04:41:48.555Z,4.15
2018-07-28T04:43:54.158Z,3.87
2018-07-28T04:45:58.638Z,4.62
2018-07-28T04:48:03.347Z,4.25
2018-07-28T04:50:07.883Z,4.40
2018-07-28T04:52:12.346Z,4.10
2018-07-28T04:54:16.855Z,3.83
2018-07-28T04:56:21.323Z,3.67
2018-07-28T04:58:25.754Z,4.12
2018-07-28T05:00:30.266Z,4.10
2018-07-28T05:02:34.778Z,4.73
2018-07-28T05:04:39.291Z,4.10
2018-07-28T05:06:43.905Z,4.53
2018-07-28T05:08:49.084Z,3.92
2018-07-28T05:10:54.523Z,4.25
2018-07-28T05:12:58.958Z,4.03
2018-07-28T05:15:03.563Z,3.80
2018-07-28T05:17:08.243Z,4.10
2018-07-28T05:19:12.733Z,3.90
2018-07-28T05:21:17.211Z,4.50
2018-07-28T05:23:21.757Z,3.95
2018-07-28T05:25:26.286Z,4.22
2018-07-28T05:27:31.002Z,4.63
2018-07-28T05:29:35.561Z,5.00
2018-07-28T05:31:40.034Z,4.30
2018-07-28T05:33:44.567Z,4.37
2018-07-28T05:35:49.197Z,4.08
2018-07-28T05:37:54.831Z,4.87
2018-07-28T05:39:59.310Z,4.07
2018-07-28T05:42:03.923Z,4.77
2018-07-28T05:44:08.411Z,3.90
2018-07-28T05:46:12.939Z,4.23
2018-07-28T05:48:17.398Z,4.20
2018-07-28T05:50:21.945Z,4.83
2018-07-28T05:52:26.463Z,4.67
2018-07-28T05:54:30.955Z,4.58
2018-07-28T05:56:35.446Z,4.57
2018-07-28T05:58:41.123Z,4.43
2018-07-28T06:00:45.567Z,4.00
2018-07-28T06:02:50.093Z,4.30
2018-07-28T06:04:56.060Z,4.67
2018-07-28T06:07:00.538Z,4.15
2018-07-28T06:09:07.533Z,4.50
2018-07-28T06:11:12.140Z,4.33
2018-07-28T06:13:16.646Z,4.23
2018-07-28T06:15:21.181Z,4.53
2018-07-28T06:17:25.754Z,4.22
2018-07-28T06:19:30.338Z,4.17
2018-07-28T06:21:35.747Z,3.90
2018-07-28T06:23:40.043Z,4.73
2018-07-28T06:25:44.571Z,4.10
2018-07-28T06:27:49.184Z,4.22
2018-07-28T06:29:54.233Z,4.35
2018-07-28T06:31:58.780Z,4.57
2018-07-28T06:34:03.195Z,4.65
2018-07-28T06:36:07.467Z,4.23
2018-07-28T06:38:11.930Z,4.40
2018-07-28T06:40:16.467Z,4.40
2018-07-28T06:42:21.123Z,3.70
2018-07-28T06:44:25.595Z,4.20
2018-07-28T06:46:30.133Z,5.00
2018-07-28T06:48:34.610Z,3.97
2018-07-28T06:50:39.084Z,3.97
2018-07-28T06:52:43.683Z,4.50
2018-07-28T06:54:48.422Z,4.60
2018-07-28T06:56:52.911Z,4.20
2018-07-28T06:58:57.109Z,4.30
2018-07-28T07:01:01.755Z,4.50
2018-07-28T07:03:06.491Z,4.72
2018-07-28T07:05:11.041Z,4.22
2018-07-28T07:07:16.215Z,3.80
2018-07-28T07:09:20.689Z,4.17
2018-07-28T07:11:25.230Z,4.00
2018-07-28T07:13:29.780Z,4.42
2018-07-28T07:15:34.410Z,3.77
2018-07-28T07:17:38.872Z,4.20
2018-07-28T07:19:43.406Z,4.22
2018-07-28T07:21:47.964Z,4.47
2018-07-28T07:23:52.438Z,4.12
2018-07-28T07:25:57.099Z,4.13
2018-07-28T07:28:01.551Z,3.77
2018-07-28T07:30:07.141Z,4.35
2018-07-28T07:32:12.319Z,4.23
2018-07-28T07:34:16.674Z,4.33
2018-07-28T07:36:21.196Z,3.93
2018-07-28T07:38:25.701Z,4.37
2018-07-28T07:40:30.151Z,3.95
2018-07-28T07:42:34.608Z,4.20
2018-07-28T07:44:39.095Z,4.70
2018-07-28T07:46:43.667Z,4.33
2018-07-28T07:48:50.004Z,4.30
2018-07-28T07:50:54.569Z,4.03
2018-07-28T07:52:59.025Z,4.20
2018-07-28T07:55:03.582Z,4.40
2018-07-28T07:57:09.046Z,4.10
2018-07-28T07:59:13.507Z,4.40
2018-07-28T08:01:18.024Z,4.45
2018-07-28T08:03:22.459Z,6.07
2018-07-28T08:05:26.605Z,7.25
2018-07-28T08:07:31.075Z,5.43
2018-07-28T08:09:37.632Z,4.93
2018-07-28T08:11:42.174Z,5.15
2018-07-28T08:13:46.690Z,5.00
2018-07-28T08:15:51.187Z,5.20
2018-07-28T08:17:55.674Z,5.10
2018-07-28T08:20:00.160Z,4.50
2018-07-28T08:22:04.687Z,4.93
2018-07-28T08:24:09.179Z,5.53
2018-07-28T08:26:13.726Z,5.08
2018-07-28T08:28:18.211Z,4.57
2018-07-28T08:30:22.687Z,5.47
2018-07-28T08:32:27.322Z,5.13
2018-07-28T08:34:31.804Z,5.40
2018-07-28T08:36:37.469Z,5.20
2018-07-28T08:38:41.922Z,5.28
2018-07-28T08:40:46.420Z,5.47
2018-07-28T08:42:50.925Z,5.60
2018-07-28T08:44:55.350Z,6.03
2018-07-28T08:46:59.859Z,5.47
2018-07-28T08:49:04.457Z,5.05
2018-07-28T08:51:08.894Z,5.03
2018-07-28T08:53:13.374Z,4.97
2018-07-28T08:55:17.863Z,5.83
2018-07-28T08:57:22.334Z,5.70
2018-07-28T08:59:26.809Z,5.70
2018-07-28T09:01:31.354Z,5.00
2018-07-28T09:03:35.868Z,5.07
2018-07-28T09:05:40.534Z,5.00
2018-07-28T09:07:45.046Z,5.37
2018-07-28T09:09:50.604Z,5.15
2018-07-28T09:11:57.706Z,5.87
2018-07-28T09:14:01.998Z,5.33
2018-07-28T09:16:06.603Z,5.57
2018-07-28T09:18:11.727Z,5.43
2018-07-28T09:20:17.632Z,5.60
2018-07-28T09:22:22.263Z,5.60
2018-07-28T09:24:26.808Z,5.87
2018-07-28T09:26:31.339Z,5.57
2018-07-28T09:28:36.098Z,5.67
2018-07-28T09:30:40.712Z,5.97
2018-07-28T09:32:45.349Z,6.23
2018-07-28T09:34:49.875Z,5.80
2018-07-28T09:36:54.121Z,5.37
2018-07-28T09:39:00.447Z,5.90
2018-07-28T09:41:05.203Z,6.30
2018-07-28T09:43:09.660Z,6.53
2018-07-28T09:45:14.469Z,6.50
2018-07-28T09:47:18.987Z,6.33
2018-07-28T09:49:23.462Z,6.12
2018-07-28T09:51:28.027Z,6.57
2018-07-28T09:53:32.477Z,6.37
2018-07-28T09:55:36.934Z,6.67
2018-07-28T09:57:41.896Z,6.33
2018-07-28T09:59:46.371Z,6.33
2018-07-28T10:01:50.960Z,7.00
2018-07-28T10:03:55.413Z,6.43
2018-07-28T10:06:00.372Z,7.37
2018-07-28T10:08:08.278Z,6.17
2018-07-28T10:10:12.875Z,6.28
2018-07-28T10:12:17.406Z,6.33
2018-07-28T10:14:21.914Z,6.77
2018-07-28T10:16:26.482Z,5.93
2018-07-28T10:18:31.879Z,5.50
2018-07-28T10:20:36.447Z,5.95
2018-07-28T10:22:40.970Z,5.93
2018-07-28T10:24:45.618Z,6.53
2018-07-28T10:26:50.114Z,5.83
2018-07-28T10:28:54.615Z,5.75
2018-07-28T10:30:59.154Z,6.60
2018-07-28T10:33:03.626Z,5.65
2018-07-28T10:35:13.979Z,6.13
2018-07-28T10:37:19.303Z,5.70
2018-07-28T10:39:23.816Z,6.08
2018-07-28T10:41:29.393Z,5.63
2018-07-28T10:43:33.910Z,5.30
2018-07-28T10:45:39.367Z,4.94
2018-07-28T10:47:43.782Z,5.50
2018-07-28T10:49:49.033Z,5.13
2018-07-28T10:51:53.609Z,5.37
2018-07-28T10:53:59.131Z,5.10
2018-07-28T10:56:03.632Z,5.07
2018-07-28T10:58:08.124Z,5.28
2018-07-28T11:00:13.268Z,4.80
2018-07-28T11:02:17.758Z,5.23
2018-07-28T11:04:22.219Z,5.07
2018-07-28T11:06:26.757Z,4.57
2018-07-28T11:08:31.249Z,4.83
2018-07-28T11:10:35.711Z,4.83
2018-07-28T11:12:40.348Z,4.70
2018-07-28T11:14:44.802Z,5.15
2018-07-28T11:16:49.334Z,4.40
2018-07-28T11:18:54.713Z,5.20
2018-07-28T11:20:59.745Z,4.47
2018-07-28T11:23:04.304Z,5.25
2018-07-28T11:25:09.499Z,4.45
2018-07-28T11:27:14.012Z,4.33
2018-07-28T11:29:18.606Z,4.67
2018-07-28T11:31:40.112Z,4.40
2018-07-28T11:34:01.518Z,4.30
2018-07-28T11:36:23.006Z,4.00
2018-07-28T11:39:45.063Z,4.00
2018-07-28T11:42:06.808Z,3.77
2018-07-28T11:44:28.470Z,3.77
2018-07-28T11:46:33.174Z,4.50
2018-07-28T11:48:37.939Z,4.10
2018-07-28T11:50:42.619Z,4.05
2018-07-28T11:52:47.183Z,4.27
2018-07-28T11:54:51.648Z,4.13
2018-07-28T11:56:56.083Z,3.92
2018-07-28T11:59:00.752Z,3.70
2018-07-28T12:01:05.961Z,3.48
2018-07-28T12:03:10.489Z,3.50
2018-07-28T12:05:15.332Z,3.45
2018-07-28T12:07:20.612Z,3.10
2018-07-28T12:09:25.203Z,3.56
2018-07-28T12:11:29.953Z,3.20
2018-07-28T12:13:34.442Z,3.30
2018-07-28T12:15:39.003Z,3.43
2018-07-28T12:17:43.546Z,3.40
2018-07-28T12:19:48.079Z,3.30
2018-07-28T12:21:52.548Z,3.62
2018-07-28T12:23:57.137Z,2.97
2018-07-28T12:26:02.173Z,2.90
2018-07-28T12:28:06.968Z,3.43
2018-07-28T12:30:12.292Z,3.17
2018-07-28T12:32:16.796Z,2.98
2018-07-28T12:34:25.030Z,2.87
2018-07-28T12:36:29.607Z,2.97
2018-07-28T12:38:34.123Z,2.47
2018-07-28T12:40:39.507Z,3.30
2018-07-28T12:42:43.991Z,2.62
2018-07-28T12:44:48.535Z,3.25
2018-07-28T12:46:53.346Z,2.60
2018-07-28T12:48:57.821Z,3.08
2018-07-28T12:51:02.429Z,3.20
2018-07-28T12:53:06.931Z,2.85
2018-07-28T12:55:11.418Z,3.08
2018-07-28T12:57:15.874Z,3.42
2018-07-28T12:59:21.303Z,3.02
2018-07-28T13:01:25.843Z,3.42
2018-07-28T13:03:30.383Z,3.10
2018-07-28T13:05:34.950Z,3.10
2018-07-28T13:07:39.526Z,2.85
2018-07-28T13:09:44.058Z,3.20
2018-07-28T13:11:48.502Z,2.83
2018-07-28T13:13:53.023Z,3.02
2018-07-28T13:15:57.590Z,3.40
2018-07-28T13:18:02.316Z,3.22
2018-07-28T13:20:07.374Z,3.53
2018-07-28T13:22:11.939Z,3.70
2018-07-28T13:24:16.402Z,3.70
2018-07-28T13:26:21.512Z,3.50
2018-07-28T13:28:25.993Z,3.67
2018-07-28T13:30:30.496Z,3.80
2018-07-28T13:32:35.046Z,4.50
2018-07-28T13:34:39.527Z,4.37
2018-07-28T13:36:44.182Z,4.72
2018-07-28T13:38:52.937Z,4.70
2018-07-28T13:41:00.768Z,3.80
2018-07-28T13:43:05.626Z,3.20
2018-07-28T13:45:10.192Z,4.40
2018-07-28T13:47:14.621Z,3.50
2018-07-28T13:49:19.165Z,3.27
2018-07-28T13:51:26.656Z,3.22
2018-07-28T13:53:31.183Z,3.53
2018-07-28T13:55:35.690Z,3.83
2018-07-28T13:57:40.151Z,3.20
2018-07-28T13:59:44.654Z,3.60
2018-07-28T14:01:49.182Z,3.30
2018-07-28T14:03:54.343Z,3.67
2018-07-28T14:05:58.847Z,3.80
2018-07-28T14:08:03.305Z,3.50
2018-07-28T14:10:09.087Z,3.60
2018-07-28T14:12:13.728Z,3.53
2018-07-28T14:14:18.226Z,3.20
2018-07-28T14:16:22.825Z,4.35
2018-07-28T14:18:32.604Z,3.45
2018-07-28T14:20:37.019Z,3.95
2018-07-28T14:22:41.494Z,4.92
2018-07-28T14:24:46.012Z,4.60
2018-07-28T14:26:50.590Z,4.08
2018-07-28T14:28:55.063Z,4.17
2018-07-28T14:30:59.590Z,4.30
2018-07-28T14:33:05.534Z,4.64
2018-07-28T14:35:10.099Z,4.22
2018-07-28T14:37:14.619Z,5.00
2018-07-28T14:39:19.176Z,6.03
2018-07-28T14:41:25.946Z,6.20
2018-07-28T14:43:32.472Z,5.63
2018-07-28T14:45:37.045Z,6.03
2018-07-28T14:47:41.607Z,5.60
2018-07-28T14:49:46.151Z,5.62
2018-07-28T14:51:53.491Z,5.70
2018-07-28T14:53:57.977Z,5.97
2018-07-28T14:56:02.498Z,5.15
2018-07-28T14:58:07.079Z,5.53
2018-07-28T15:00:11.642Z,5.83
2018-07-28T15:02:16.230Z,5.97
2018-07-28T15:04:20.737Z,5.70
2018-07-28T15:06:25.201Z,5.90
2018-07-28T15:08:29.845Z,5.77
2018-07-28T15:10:34.362Z,5.20
2018-07-28T15:12:38.866Z,4.80
2018-07-28T15:14:44.458Z,5.12
2018-07-28T15:16:49.008Z,5.02
2018-07-28T15:18:53.460Z,4.60
2018-07-28T15:20:58.000Z,4.30
2018-07-28T15:23:02.521Z,4.10
2018-07-28T15:25:07.853Z,4.42
2018-07-28T15:27:12.322Z,4.37
2018-07-28T15:29:16.872Z,4.33
2018-07-28T15:31:21.770Z,4.55
2018-07-28T15:33:26.251Z,4.40
2018-07-28T15:35:30.742Z,3.93
2018-07-28T15:37:35.312Z,4.28
2018-07-28T15:39:39.830Z,4.53
2018-07-28T15:41:44.812Z,4.58
2018-07-28T15:43:49.300Z,4.14
2018-07-28T15:45:53.783Z,4.23
2018-07-28T15:47:58.236Z,4.77
2018-07-28T15:50:02.751Z,3.87
2018-07-28T15:52:07.286Z,4.37
2018-07-28T15:54:11.698Z,4.40
2018-07-28T15:56:17.018Z,4.17
2018-07-28T15:58:21.459Z,3.90
2018-07-28T16:00:26.259Z,4.10
2018-07-28T16:02:30.750Z,4.03
2018-07-28T16:04:35.566Z,4.08
2018-07-28T16:06:41.886Z,4.12
2018-07-28T16:08:46.390Z,3.90
2018-07-28T16:10:51.163Z,3.90
2018-07-28T16:12:56.254Z,4.23
2018-07-28T16:15:01.108Z,5.78
2018-07-28T16:17:05.679Z,4.10
2018-07-28T16:19:10.262Z,4.37
2018-07-28T16:21:15.358Z,5.28
2018-07-28T16:23:19.812Z,4.40
2018-07-28T16:25:25.087Z,3.83
2018-07-28T16:27:29.815Z,4.75
2018-07-28T16:29:34.293Z,5.28
2018-07-28T16:31:38.765Z,4.35
2018-07-28T16:33:43.287Z,4.37
2018-07-28T16:35:48.063Z,4.20
2018-07-28T16:37:52.545Z,3.37
2018-07-28T16:39:57.234Z,3.20
2018-07-28T16:42:01.759Z,3.07
2018-07-28T16:44:06.204Z,3.20
2018-07-28T16:46:10.722Z,3.13
2018-07-28T16:48:15.208Z,3.30
2018-07-28T16:50:19.675Z,2.17
2018-07-28T16:52:25.292Z,2.47
2018-07-28T16:54:29.921Z,2.27
2018-07-28T16:56:34.405Z,2.52
2018-07-28T16:58:38.862Z,2.63
2018-07-28T17:00:43.423Z,2.47
2018-07-28T17:02:48.047Z,2.70
2018-07-28T17:04:52.470Z,3.27
2018-07-28T17:06:56.973Z,3.25
2018-07-28T17:09:01.926Z,2.77
2018-07-28T17:11:06.478Z,2.77
2018-07-28T17:13:10.938Z,2.85
2018-07-28T17:15:16.956Z,2.27
2018-07-28T17:17:21.485Z,2.27
2018-07-28T17:19:25.937Z,2.53
2018-07-28T17:21:30.463Z,2.37
2018-07-28T17:23:36.147Z,2.27
2018-07-28T17:25:40.739Z,2.57
2018-07-28T17:27:46.039Z,2.50
2018-07-28T17:29:50.582Z,2.60
2018-07-28T17:31:55.127Z,2.50
2018-07-28T17:33:59.590Z,2.40
2018-07-28T17:36:04.131Z,2.20
2018-07-28T17:38:09.052Z,2.47
2018-07-28T17:40:13.511Z,2.37
2018-07-28T17:42:17.974Z,2.80
2018-07-28T17:44:22.438Z,2.43
2018-07-28T17:46:27.021Z,2.70
2018-07-28T17:48:31.464Z,2.60
2018-07-28T17:50:35.953Z,2.70
2018-07-28T17:52:41.083Z,2.53
2018-07-28T17:54:45.569Z,2.97
2018-07-28T17:56:50.104Z,3.07
2018-07-28T17:58:55.489Z,2.57
2018-07-28T18:00:59.995Z,3.00
2018-07-28T18:03:06.034Z,2.90
2018-07-28T18:05:10.518Z,3.10
2018-07-28T18:07:14.733Z,3.85
2018-07-28T18:09:19.315Z,3.37
2018-07-28T18:11:23.884Z,3.57
2018-07-28T18:13:28.492Z,3.20
2018-07-28T18:15:33.034Z,3.08
2018-07-28T18:17:38.318Z,3.27
2018-07-28T18:19:42.792Z,3.27
2018-07-28T18:21:47.306Z,3.60
2018-07-28T18:23:51.798Z,4.13
2018-07-28T18:25:56.287Z,3.70
2018-07-28T18:28:00.800Z,3.83
2018-07-28T18:30:05.955Z,3.92
2018-07-28T18:32:10.490Z,4.33
2018-07-28T18:34:17.886Z,3.85
2018-07-28T18:36:22.394Z,3.77
2018-07-28T18:38:26.938Z,4.73
2018-07-28T18:40:31.426Z,4.30
2018-07-28T18:42:35.911Z,4.17
2018-07-28T18:44:40.387Z,3.87
2018-07-28T18:46:46.060Z,3.97
2018-07-28T18:48:50.621Z,4.10
2018-07-28T18:50:55.083Z,4.10
2018-07-28T18:53:00.269Z,5.03
2018-07-28T18:55:06.624Z,4.63
2018-07-28T18:57:11.292Z,4.63
2018-07-28T18:59:16.167Z,4.47
2018-07-28T19:01:20.723Z,4.30
2018-07-28T19:03:26.271Z,4.10
2018-07-28T19:05:30.782Z,4.25
2018-07-28T19:07:35.338Z,3.85
2018-07-28T19:09:44.945Z,4.35
2018-07-28T19:11:49.454Z,4.40
2018-07-28T19:13:59.168Z,3.92
2018-07-28T19:16:04.587Z,4.58
2018-07-28T19:18:14.256Z,4.33
2018-07-28T19:20:18.806Z,4.33
2018-07-28T19:22:28.685Z,4.17
2018-07-28T19:24:33.199Z,3.83
2018-07-28T19:26:37.843Z,4.28
2018-07-28T19:28:47.691Z,3.80
2018-07-28T19:30:52.174Z,4.65
2018-07-28T19:32:57.436Z,4.60
2018-07-28T19:35:01.947Z,4.00
2018-07-28T19:37:11.960Z,4.53
2018-07-28T19:39:16.552Z,3.87
2018-07-28T19:41:21.111Z,4.67
2018-07-28T19:43:25.602Z,4.73
2018-07-28T19:45:30.308Z,4.58
2018-07-28T19:47:34.787Z,4.30
2018-07-28T19:49:39.814Z,4.37
2018-07-28T19:51:44.626Z,4.92
2018-07-28T19:53:50.299Z,5.30
2018-07-28T19:55:54.763Z,5.30
2018-07-28T19:57:59.250Z,5.42
2018-07-28T20:00:04.163Z,4.87
2018-07-28T20:02:08.834Z,4.30
2018-07-28T20:04:13.303Z,4.20
2018-07-28T20:06:18.374Z,5.28
2018-07-28T20:08:22.847Z,4.53
2018-07-28T20:10:27.919Z,5.25
2018-07-28T20:12:32.396Z,4.95
2018-07-28T20:14:36.879Z,4.67
2018-07-28T20:16:42.126Z,4.73
2018-07-28T20:18:46.639Z,4.92
2018-07-28T20:20:51.115Z,5.07
2018-07-28T20:22:55.586Z,5.55
2018-07-28T20:25:00.925Z,5.53
2018-07-28T20:27:05.702Z,5.10
2018-07-28T20:29:11.401Z,5.83
2018-07-28T20:31:15.889Z,5.72
2018-07-28T20:33:20.633Z,5.60
2018-07-28T20:35:25.674Z,6.20
2018-07-28T20:37:30.684Z,5.50
2018-07-28T20:39:35.473Z,6.47
2018-07-28T20:41:39.618Z,5.87
2018-07-28T20:43:44.243Z,6.00
2018-07-28T20:45:49.014Z,6.65
2018-07-28T20:47:53.643Z,6.43
2018-07-28T20:49:58.142Z,7.00
2018-07-28T20:52:04.607Z,7.57
2018-07-28T20:54:10.164Z,6.07
2018-07-28T20:56:17.050Z,6.57
2018-07-28T20:58:22.496Z,6.77
2018-07-28T21:00:30.182Z,7.17
2018-07-28T21:02:36.303Z,7.13
2018-07-28T21:04:41.270Z,6.90
2018-07-28T21:06:46.279Z,6.65
2018-07-28T21:08:51.534Z,6.70
2018-07-28T21:10:57.030Z,7.03
2018-07-28T21:13:01.725Z,6.80
2018-07-28T21:15:07.693Z,6.62
2018-07-28T21:17:13.362Z,6.57
2018-07-28T21:19:18.125Z,6.92
2018-07-28T21:21:23.227Z,6.47
2018-07-28T21:23:28.303Z,6.50
2018-07-28T21:25:32.976Z,6.57
2018-07-28T21:27:37.668Z,6.45
2018-07-28T21:29:42.186Z,6.80
2018-07-28T21:31:46.726Z,6.80
2018-07-28T21:33:51.349Z,7.37
2018-07-28T21:35:56.108Z,6.53
2018-07-28T21:38:00.579Z,7.07
2018-07-28T21:40:05.392Z,6.57
2018-07-28T21:42:12.246Z,7.83
2018-07-28T21:44:16.783Z,7.47
2018-07-28T21:46:23.677Z,7.22
2018-07-28T21:48:32.782Z,7.23
2018-07-28T21:50:39.762Z,7.03
2018-07-28T21:52:46.874Z,7.13
2018-07-28T21:54:53.584Z,7.00
2018-07-28T21:57:07.075Z,6.53
2018-07-28T21:59:12.882Z,6.47
2018-07-28T22:01:20.099Z,6.20
2018-07-28T22:03:25.266Z,6.27
2018-07-28T22:05:29.726Z,6.57
2018-07-28T22:07:34.208Z,6.07
2018-07-28T22:09:38.820Z,6.47
2018-07-28T22:11:43.438Z,6.13
2018-07-28T22:13:47.988Z,7.10
2018-07-28T22:15:53.142Z,6.57
2018-07-28T22:17:57.866Z,6.47
2018-07-28T22:20:02.154Z,7.20
2018-07-28T22:22:06.956Z,7.27
2018-07-28T22:24:11.703Z,8.25
2018-07-28T22:26:16.347Z,7.83
2018-07-28T22:28:20.893Z,7.70
2018-07-28T22:30:25.339Z,7.45
2018-07-28T22:32:29.797Z,7.60
2018-07-28T22:34:34.268Z,7.07
2018-07-28T22:36:38.784Z,7.40
2018-07-28T22:38:43.325Z,7.00
2018-07-28T22:40:47.852Z,6.90
2018-07-28T22:42:52.357Z,7.70
2018-07-28T22:44:56.798Z,6.87
2018-07-28T22:47:01.292Z,6.40
2018-07-28T22:49:05.839Z,6.60
2018-07-28T22:51:11.129Z,6.13
2018-07-28T22:53:15.599Z,6.67
2018-07-28T22:55:20.466Z,6.97
2018-07-28T22:57:24.984Z,6.60
2018-07-28T22:59:29.489Z,6.67
2018-07-28T23:01:34.044Z,6.10
2018-07-28T23:03:38.510Z,6.20
2018-07-28T23:05:42.939Z,5.90
2018-07-28T23:07:47.512Z,5.72
2018-07-28T23:09:51.961Z,6.03
2018-07-28T23:11:57.258Z,6.35
2018-07-28T23:14:01.638Z,6.63
2018-07-28T23:16:06.648Z,6.55
2018-07-28T23:18:11.211Z,6.57
2018-07-28T23:20:15.758Z,6.50
2018-07-28T23:22:20.270Z,6.62
2018-07-28T23:24:24.743Z,6.22
2018-07-28T23:26:29.010Z,6.28
2018-07-28T23:28:33.476Z,6.10
2018-07-28T23:30:37.966Z,6.60
2018-07-28T23:32:42.522Z,6.22
2018-07-28T23:34:46.950Z,5.63
2018-07-28T23:36:51.434Z,5.13
2018-07-28T23:38:55.879Z,5.70
2018-07-28T23:41:00.331Z,5.67
2018-07-28T23:43:04.908Z,6.17
2018-07-28T23:45:09.426Z,6.20
2018-07-28T23:47:13.975Z,6.57
2018-07-28T23:49:18.431Z,7.37
2018-07-28T23:51:23.113Z,7.72
2018-07-28T23:53:27.716Z,9.80
2018-07-28T23:55:33.318Z,9.73
2018-07-28T23:57:37.882Z,9.23
2018-07-28T23:59:42.546Z,9.48
